sensor_id;sensor_type;location;lat;lon;timestamp;P1;durP1;ratioP1;P2;durP2;ratioP2
34657;SDS011;20865;43.312;27.152;2023-06-26T00:00:37;5.60;;;3.80;;
34657;SDS011;20865;43.312;27.152;2023-06-26T00:03:05;11.18;;;3.83;;
34657;SDS011;20865;43.312;27.152;2023-06-26T00:05:32;6.53;;;4.12;;
34657;SDS011;20865;43.312;27.152;2023-06-26T00:08:00;4.95;;;3.15;;
34657;SDS011;20865;43.312;27.152;2023-06-26T00:10:27;6.50;;;4.00;;
34657;SDS011;20865;43.312;27.152;2023-06-26T00:12:55;6.20;;;3.55;;
34657;SDS011;20865;43.312;27.152;2023-06-26T00:15:23;5.25;;;3.72;;
34657;SDS011;20865;43.312;27.152;2023-06-26T00:17:50;7.62;;;4.42;;
34657;SDS011;20865;43.312;27.152;2023-06-26T00:20:18;6.42;;;4.30;;
34657;SDS011;20865;43.312;27.152;2023-06-26T00:22:45;5.62;;;3.85;;
34657;SDS011;20865;43.312;27.152;2023-06-26T00:25:15;7.50;;;4.40;;
34657;SDS011;20865;43.312;27.152;2023-06-26T00:27:42;4.97;;;3.55;;
34657;SDS011;20865;43.312;27.152;2023-06-26T00:30:10;7.05;;;4.08;;
34657;SDS011;20865;43.312;27.152;2023-06-26T00:32:38;6.92;;;3.95;;
34657;SDS011;20865;43.312;27.152;2023-06-26T00:35:06;8.28;;;4.45;;
34657;SDS011;20865;43.312;27.152;2023-06-26T00:37:34;6.33;;;3.75;;
34657;SDS011;20865;43.312;27.152;2023-06-26T00:40:01;6.67;;;3.58;;
34657;SDS011;20865;43.312;27.152;2023-06-26T00:42:31;8.65;;;4.87;;
34657;SDS011;20865;43.312;27.152;2023-06-26T00:44:58;8.75;;;5.10;;
34657;SDS011;20865;43.312;27.152;2023-06-26T00:47:26;8.43;;;5.47;;
34657;SDS011;20865;43.312;27.152;2023-06-26T00:49:54;8.78;;;4.42;;
34657;SDS011;20865;43.312;27.152;2023-06-26T00:52:22;9.23;;;5.12;;
34657;SDS011;20865;43.312;27.152;2023-06-26T00:54:50;11.83;;;4.83;;
34657;SDS011;20865;43.312;27.152;2023-06-26T00:57:19;9.05;;;5.17;;
34657;SDS011;20865;43.312;27.152;2023-06-26T00:59:46;8.45;;;5.42;;
34657;SDS011;20865;43.312;27.152;2023-06-26T01:02:15;10.32;;;5.20;;
34657;SDS011;20865;43.312;27.152;2023-06-26T01:04:52;17.57;;;6.03;;
34657;SDS011;20865;43.312;27.152;2023-06-26T01:07:20;7.33;;;4.95;;
34657;SDS011;20865;43.312;27.152;2023-06-26T01:09:49;11.20;;;5.60;;
34657;SDS011;20865;43.312;27.152;2023-06-26T01:12:17;10.48;;;5.50;;
34657;SDS011;20865;43.312;27.152;2023-06-26T01:14:47;15.15;;;6.17;;
34657;SDS011;20865;43.312;27.152;2023-06-26T01:17:14;18.15;;;7.33;;
34657;SDS011;20865;43.312;27.152;2023-06-26T01:19:42;11.97;;;6.87;;
34657;SDS011;20865;43.312;27.152;2023-06-26T01:25:37;19.82;;;8.28;;
34657;SDS011;20865;43.312;27.152;2023-06-26T01:27:42;15.58;;;8.78;;
34657;SDS011;20865;43.312;27.152;2023-06-26T01:30:12;20.02;;;9.08;;
34657;SDS011;20865;43.312;27.152;2023-06-26T01:32:41;20.10;;;10.23;;
34657;SDS011;20865;43.312;27.152;2023-06-26T01:35:11;15.93;;;8.88;;
34657;SDS011;20865;43.312;27.152;2023-06-26T01:37:40;20.37;;;9.05;;
34657;SDS011;20865;43.312;27.152;2023-06-26T01:40:08;18.87;;;8.78;;
34657;SDS011;20865;43.312;27.152;2023-06-26T01:42:36;16.27;;;10.15;;
34657;SDS011;20865;43.312;27.152;2023-06-26T01:45:23;16.70;;;9.88;;
34657;SDS011;20865;43.312;27.152;2023-06-26T01:47:40;16.10;;;9.05;;
34657;SDS011;20865;43.312;27.152;2023-06-26T01:50:17;18.75;;;10.60;;
34657;SDS011;20865;43.312;27.152;2023-06-26T01:55:46;15.90;;;9.45;;
34657;SDS011;20865;43.312;27.152;2023-06-26T01:58:16;19.15;;;9.78;;
34657;SDS011;20865;43.312;27.152;2023-06-26T02:00:46;16.48;;;9.28;;
34657;SDS011;20865;43.312;27.152;2023-06-26T02:03:15;20.97;;;11.03;;
34657;SDS011;20865;43.312;27.152;2023-06-26T02:05:42;20.70;;;10.90;;
34657;SDS011;20865;43.312;27.152;2023-06-26T02:08:10;18.82;;;10.80;;
34657;SDS011;20865;43.312;27.152;2023-06-26T02:10:39;21.35;;;11.40;;
34657;SDS011;20865;43.312;27.152;2023-06-26T02:13:07;19.23;;;11.50;;
34657;SDS011;20865;43.312;27.152;2023-06-26T02:15:34;25.97;;;10.93;;
34657;SDS011;20865;43.312;27.152;2023-06-26T02:18:02;22.00;;;11.38;;
34657;SDS011;20865;43.312;27.152;2023-06-26T02:20:29;22.62;;;13.10;;
34657;SDS011;20865;43.312;27.152;2023-06-26T02:22:59;21.73;;;12.15;;
34657;SDS011;20865;43.312;27.152;2023-06-26T02:25:26;21.33;;;12.68;;
34657;SDS011;20865;43.312;27.152;2023-06-26T02:27:54;21.73;;;12.23;;
34657;SDS011;20865;43.312;27.152;2023-06-26T02:30:21;23.90;;;12.40;;
34657;SDS011;20865;43.312;27.152;2023-06-26T02:32:49;21.07;;;11.68;;
34657;SDS011;20865;43.312;27.152;2023-06-26T02:35:17;21.57;;;11.55;;
34657;SDS011;20865;43.312;27.152;2023-06-26T02:37:44;24.40;;;11.95;;
34657;SDS011;20865;43.312;27.152;2023-06-26T02:40:12;18.70;;;11.03;;
34657;SDS011;20865;43.312;27.152;2023-06-26T02:42:39;17.75;;;11.38;;
34657;SDS011;20865;43.312;27.152;2023-06-26T02:45:08;20.70;;;10.45;;
34657;SDS011;20865;43.312;27.152;2023-06-26T02:47:36;26.45;;;11.83;;
34657;SDS011;20865;43.312;27.152;2023-06-26T02:50:06;18.60;;;11.08;;
34657;SDS011;20865;43.312;27.152;2023-06-26T02:52:34;21.62;;;10.82;;
34657;SDS011;20865;43.312;27.152;2023-06-26T02:55:02;22.17;;;11.20;;
34657;SDS011;20865;43.312;27.152;2023-06-26T02:57:31;22.93;;;10.05;;
34657;SDS011;20865;43.312;27.152;2023-06-26T02:59:58;27.42;;;10.72;;
34657;SDS011;20865;43.312;27.152;2023-06-26T03:02:26;18.65;;;10.10;;
34657;SDS011;20865;43.312;27.152;2023-06-26T03:04:53;19.30;;;10.85;;
34657;SDS011;20865;43.312;27.152;2023-06-26T03:07:23;26.93;;;10.50;;
34657;SDS011;20865;43.312;27.152;2023-06-26T03:09:51;20.25;;;11.15;;
34657;SDS011;20865;43.312;27.152;2023-06-26T03:12:18;22.20;;;10.80;;
34657;SDS011;20865;43.312;27.152;2023-06-26T03:14:46;21.55;;;10.58;;
34657;SDS011;20865;43.312;27.152;2023-06-26T03:17:13;23.20;;;12.13;;
34657;SDS011;20865;43.312;27.152;2023-06-26T03:19:41;20.85;;;12.33;;
34657;SDS011;20865;43.312;27.152;2023-06-26T03:22:09;20.37;;;12.93;;
34657;SDS011;20865;43.312;27.152;2023-06-26T03:24:36;19.20;;;13.45;;
34657;SDS011;20865;43.312;27.152;2023-06-26T03:27:04;21.02;;;12.45;;
34657;SDS011;20865;43.312;27.152;2023-06-26T03:29:31;20.65;;;11.70;;
34657;SDS011;20865;43.312;27.152;2023-06-26T03:31:59;18.52;;;12.25;;
34657;SDS011;20865;43.312;27.152;2023-06-26T03:34:27;29.48;;;12.90;;
34657;SDS011;20865;43.312;27.152;2023-06-26T03:36:54;19.60;;;12.90;;
34657;SDS011;20865;43.312;27.152;2023-06-26T03:39:22;21.30;;;12.78;;
34657;SDS011;20865;43.312;27.152;2023-06-26T03:41:50;23.95;;;12.03;;
34657;SDS011;20865;43.312;27.152;2023-06-26T03:44:18;16.65;;;11.85;;
34657;SDS011;20865;43.312;27.152;2023-06-26T03:46:46;28.62;;;11.70;;
34657;SDS011;20865;43.312;27.152;2023-06-26T03:49:14;23.98;;;10.85;;
34657;SDS011;20865;43.312;27.152;2023-06-26T03:51:41;23.90;;;10.40;;
34657;SDS011;20865;43.312;27.152;2023-06-26T03:54:09;26.37;;;10.90;;
34657;SDS011;20865;43.312;27.152;2023-06-26T03:56:37;16.23;;;8.63;;
34657;SDS011;20865;43.312;27.152;2023-06-26T03:59:04;20.80;;;9.28;;
34657;SDS011;20865;43.312;27.152;2023-06-26T04:01:32;16.52;;;9.78;;
34657;SDS011;20865;43.312;27.152;2023-06-26T04:04:00;17.35;;;9.03;;
34657;SDS011;20865;43.312;27.152;2023-06-26T04:06:28;19.77;;;9.48;;
34657;SDS011;20865;43.312;27.152;2023-06-26T04:08:57;17.37;;;9.48;;
34657;SDS011;20865;43.312;27.152;2023-06-26T04:11:25;15.63;;;9.65;;
34657;SDS011;20865;43.312;27.152;2023-06-26T04:13:53;18.23;;;9.80;;
34657;SDS011;20865;43.312;27.152;2023-06-26T04:16:21;15.83;;;9.10;;
34657;SDS011;20865;43.312;27.152;2023-06-26T04:18:51;23.83;;;10.50;;
34657;SDS011;20865;43.312;27.152;2023-06-26T04:21:21;17.52;;;8.73;;
34657;SDS011;20865;43.312;27.152;2023-06-26T04:23:52;15.20;;;9.13;;
34657;SDS011;20865;43.312;27.152;2023-06-26T04:26:20;16.55;;;9.28;;
34657;SDS011;20865;43.312;27.152;2023-06-26T04:28:48;17.20;;;9.85;;
34657;SDS011;20865;43.312;27.152;2023-06-26T04:31:15;17.87;;;9.73;;
34657;SDS011;20865;43.312;27.152;2023-06-26T04:33:43;19.90;;;9.75;;
34657;SDS011;20865;43.312;27.152;2023-06-26T04:36:10;21.60;;;10.30;;
34657;SDS011;20865;43.312;27.152;2023-06-26T04:38:40;19.55;;;9.65;;
34657;SDS011;20865;43.312;27.152;2023-06-26T04:41:07;16.27;;;9.18;;
34657;SDS011;20865;43.312;27.152;2023-06-26T04:43:35;20.35;;;8.95;;
34657;SDS011;20865;43.312;27.152;2023-06-26T04:46:02;20.55;;;9.48;;
34657;SDS011;20865;43.312;27.152;2023-06-26T04:48:30;21.10;;;10.32;;
34657;SDS011;20865;43.312;27.152;2023-06-26T04:50:58;21.93;;;9.45;;
34657;SDS011;20865;43.312;27.152;2023-06-26T04:53:26;15.72;;;8.30;;
34657;SDS011;20865;43.312;27.152;2023-06-26T04:55:53;20.70;;;9.85;;
34657;SDS011;20865;43.312;27.152;2023-06-26T04:58:21;22.37;;;9.73;;
34657;SDS011;20865;43.312;27.152;2023-06-26T05:00:49;20.92;;;9.53;;
34657;SDS011;20865;43.312;27.152;2023-06-26T05:03:17;17.55;;;9.45;;
34657;SDS011;20865;43.312;27.152;2023-06-26T05:05:44;27.93;;;8.53;;
34657;SDS011;20865;43.312;27.152;2023-06-26T05:08:16;16.90;;;7.60;;
34657;SDS011;20865;43.312;27.152;2023-06-26T05:10:44;14.45;;;8.95;;
34657;SDS011;20865;43.312;27.152;2023-06-26T05:13:12;19.12;;;8.73;;
34657;SDS011;20865;43.312;27.152;2023-06-26T05:15:41;19.42;;;8.53;;
34657;SDS011;20865;43.312;27.152;2023-06-26T05:18:09;20.35;;;9.68;;
34657;SDS011;20865;43.312;27.152;2023-06-26T05:20:37;22.00;;;8.35;;
34657;SDS011;20865;43.312;27.152;2023-06-26T05:23:05;16.82;;;8.68;;
34657;SDS011;20865;43.312;27.152;2023-06-26T05:25:33;15.43;;;8.03;;
34657;SDS011;20865;43.312;27.152;2023-06-26T05:28:01;15.93;;;8.00;;
34657;SDS011;20865;43.312;27.152;2023-06-26T05:30:31;16.40;;;7.83;;
34657;SDS011;20865;43.312;27.152;2023-06-26T05:33:01;14.35;;;7.92;;
34657;SDS011;20865;43.312;27.152;2023-06-26T05:35:31;15.00;;;7.47;;
34657;SDS011;20865;43.312;27.152;2023-06-26T05:38:00;12.85;;;6.78;;
34657;SDS011;20865;43.312;27.152;2023-06-26T05:40:29;18.05;;;6.55;;
34657;SDS011;20865;43.312;27.152;2023-06-26T05:42:57;12.03;;;6.50;;
34657;SDS011;20865;43.312;27.152;2023-06-26T05:45:24;15.50;;;6.60;;
34657;SDS011;20865;43.312;27.152;2023-06-26T05:47:52;17.25;;;7.50;;
34657;SDS011;20865;43.312;27.152;2023-06-26T05:50:20;14.30;;;6.40;;
34657;SDS011;20865;43.312;27.152;2023-06-26T05:52:48;11.38;;;6.12;;
34657;SDS011;20865;43.312;27.152;2023-06-26T05:55:16;11.00;;;6.45;;
34657;SDS011;20865;43.312;27.152;2023-06-26T05:57:44;13.40;;;6.17;;
34657;SDS011;20865;43.312;27.152;2023-06-26T06:00:13;11.38;;;6.00;;
34657;SDS011;20865;43.312;27.152;2023-06-26T06:02:41;10.38;;;4.92;;
34657;SDS011;20865;43.312;27.152;2023-06-26T06:05:10;8.58;;;4.83;;
34657;SDS011;20865;43.312;27.152;2023-06-26T06:07:37;11.03;;;5.55;;
34657;SDS011;20865;43.312;27.152;2023-06-26T06:10:05;16.30;;;5.12;;
34657;SDS011;20865;43.312;27.152;2023-06-26T06:12:33;8.93;;;5.40;;
34657;SDS011;20865;43.312;27.152;2023-06-26T06:15:01;8.08;;;4.80;;
34657;SDS011;20865;43.312;27.152;2023-06-26T06:17:28;15.32;;;5.25;;
34657;SDS011;20865;43.312;27.152;2023-06-26T06:19:56;11.30;;;5.20;;
34657;SDS011;20865;43.312;27.152;2023-06-26T06:22:23;11.28;;;5.37;;
34657;SDS011;20865;43.312;27.152;2023-06-26T06:24:51;9.80;;;5.22;;
34657;SDS011;20865;43.312;27.152;2023-06-26T06:27:18;10.43;;;5.75;;
34657;SDS011;20865;43.312;27.152;2023-06-26T06:29:46;8.43;;;5.00;;
34657;SDS011;20865;43.312;27.152;2023-06-26T06:32:14;11.48;;;5.50;;
34657;SDS011;20865;43.312;27.152;2023-06-26T06:34:41;8.73;;;5.05;;
34657;SDS011;20865;43.312;27.152;2023-06-26T06:37:09;9.05;;;5.58;;
34657;SDS011;20865;43.312;27.152;2023-06-26T06:39:37;8.05;;;5.20;;
34657;SDS011;20865;43.312;27.152;2023-06-26T06:42:04;13.62;;;6.28;;
34657;SDS011;20865;43.312;27.152;2023-06-26T06:44:32;10.28;;;6.72;;
34657;SDS011;20865;43.312;27.152;2023-06-26T06:47:00;9.98;;;5.37;;
34657;SDS011;20865;43.312;27.152;2023-06-26T06:49:28;7.95;;;5.37;;
34657;SDS011;20865;43.312;27.152;2023-06-26T06:51:55;12.00;;;5.28;;
34657;SDS011;20865;43.312;27.152;2023-06-26T06:54:25;16.10;;;5.97;;
34657;SDS011;20865;43.312;27.152;2023-06-26T06:56:55;12.47;;;5.47;;
34657;SDS011;20865;43.312;27.152;2023-06-26T06:59:22;12.90;;;5.08;;
34657;SDS011;20865;43.312;27.152;2023-06-26T07:01:50;11.53;;;4.72;;
34657;SDS011;20865;43.312;27.152;2023-06-26T07:04:17;14.40;;;6.20;;
34657;SDS011;20865;43.312;27.152;2023-06-26T07:06:45;12.50;;;5.75;;
34657;SDS011;20865;43.312;27.152;2023-06-26T07:09:12;11.97;;;4.47;;
34657;SDS011;20865;43.312;27.152;2023-06-26T07:11:40;12.28;;;5.30;;
34657;SDS011;20865;43.312;27.152;2023-06-26T07:14:08;9.28;;;4.87;;
34657;SDS011;20865;43.312;27.152;2023-06-26T07:16:35;10.53;;;4.30;;
34657;SDS011;20865;43.312;27.152;2023-06-26T07:19:03;9.75;;;4.83;;
34657;SDS011;20865;43.312;27.152;2023-06-26T07:21:30;11.25;;;5.10;;
34657;SDS011;20865;43.312;27.152;2023-06-26T07:23:58;6.58;;;4.50;;
34657;SDS011;20865;43.312;27.152;2023-06-26T07:26:26;9.10;;;4.65;;
34657;SDS011;20865;43.312;27.152;2023-06-26T07:28:53;7.95;;;4.47;;
34657;SDS011;20865;43.312;27.152;2023-06-26T07:31:22;12.07;;;4.87;;
34657;SDS011;20865;43.312;27.152;2023-06-26T07:33:49;10.75;;;5.12;;
34657;SDS011;20865;43.312;27.152;2023-06-26T07:36:17;10.72;;;4.40;;
34657;SDS011;20865;43.312;27.152;2023-06-26T07:38:44;10.00;;;4.28;;
34657;SDS011;20865;43.312;27.152;2023-06-26T07:41:12;6.90;;;4.12;;
34657;SDS011;20865;43.312;27.152;2023-06-26T07:43:40;10.78;;;4.28;;
34657;SDS011;20865;43.312;27.152;2023-06-26T07:46:07;7.20;;;4.50;;
34657;SDS011;20865;43.312;27.152;2023-06-26T07:48:35;6.50;;;4.03;;
34657;SDS011;20865;43.312;27.152;2023-06-26T07:51:02;8.30;;;4.65;;
34657;SDS011;20865;43.312;27.152;2023-06-26T07:53:30;9.35;;;4.62;;
34657;SDS011;20865;43.312;27.152;2023-06-26T07:55:57;10.25;;;5.12;;
34657;SDS011;20865;43.312;27.152;2023-06-26T07:58:25;9.03;;;4.22;;
34657;SDS011;20865;43.312;27.152;2023-06-26T08:00:53;10.48;;;4.72;;
34657;SDS011;20865;43.312;27.152;2023-06-26T08:03:20;8.70;;;4.53;;
34657;SDS011;20865;43.312;27.152;2023-06-26T08:05:49;8.35;;;4.35;;
34657;SDS011;20865;43.312;27.152;2023-06-26T08:08:16;8.68;;;4.60;;
34657;SDS011;20865;43.312;27.152;2023-06-26T08:10:45;7.80;;;4.35;;
34657;SDS011;20865;43.312;27.152;2023-06-26T08:13:13;9.40;;;4.42;;
34657;SDS011;20865;43.312;27.152;2023-06-26T08:15:40;8.35;;;4.40;;
34657;SDS011;20865;43.312;27.152;2023-06-26T08:18:08;9.70;;;4.47;;
34657;SDS011;20865;43.312;27.152;2023-06-26T08:20:36;7.28;;;4.45;;
34657;SDS011;20865;43.312;27.152;2023-06-26T08:23:03;8.63;;;4.85;;
34657;SDS011;20865;43.312;27.152;2023-06-26T08:25:32;7.45;;;4.85;;
34657;SDS011;20865;43.312;27.152;2023-06-26T08:28:00;10.25;;;4.67;;
34657;SDS011;20865;43.312;27.152;2023-06-26T08:30:27;7.20;;;4.60;;
34657;SDS011;20865;43.312;27.152;2023-06-26T08:32:55;8.20;;;4.40;;
34657;SDS011;20865;43.312;27.152;2023-06-26T08:35:23;6.00;;;3.95;;
34657;SDS011;20865;43.312;27.152;2023-06-26T08:37:50;11.08;;;4.30;;
34657;SDS011;20865;43.312;27.152;2023-06-26T08:40:20;7.58;;;4.12;;
34657;SDS011;20865;43.312;27.152;2023-06-26T08:42:48;13.30;;;4.25;;
34657;SDS011;20865;43.312;27.152;2023-06-26T08:45:18;8.73;;;3.83;;
34657;SDS011;20865;43.312;27.152;2023-06-26T08:47:46;6.45;;;3.72;;
34657;SDS011;20865;43.312;27.152;2023-06-26T08:50:16;9.93;;;4.25;;
34657;SDS011;20865;43.312;27.152;2023-06-26T08:52:49;9.00;;;3.98;;
34657;SDS011;20865;43.312;27.152;2023-06-26T08:55:33;8.68;;;4.58;;
34657;SDS011;20865;43.312;27.152;2023-06-26T08:58:03;8.25;;;3.75;;
34657;SDS011;20865;43.312;27.152;2023-06-26T09:00:31;8.60;;;4.42;;
34657;SDS011;20865;43.312;27.152;2023-06-26T09:03:00;8.40;;;3.72;;
34657;SDS011;20865;43.312;27.152;2023-06-26T09:05:30;6.70;;;3.98;;
34657;SDS011;20865;43.312;27.152;2023-06-26T09:08:01;5.70;;;3.70;;
34657;SDS011;20865;43.312;27.152;2023-06-26T09:10:29;9.00;;;4.30;;
34657;SDS011;20865;43.312;27.152;2023-06-26T09:12:56;9.65;;;4.00;;
34657;SDS011;20865;43.312;27.152;2023-06-26T09:15:24;5.90;;;3.95;;
34657;SDS011;20865;43.312;27.152;2023-06-26T09:17:53;9.85;;;5.28;;
34657;SDS011;20865;43.312;27.152;2023-06-26T09:20:27;7.35;;;3.45;;
34657;SDS011;20865;43.312;27.152;2023-06-26T09:22:56;9.08;;;3.65;;
34657;SDS011;20865;43.312;27.152;2023-06-26T09:25:24;10.78;;;4.70;;
34657;SDS011;20865;43.312;27.152;2023-06-26T09:27:52;10.68;;;3.98;;
34657;SDS011;20865;43.312;27.152;2023-06-26T09:30:22;6.03;;;3.45;;
34657;SDS011;20865;43.312;27.152;2023-06-26T09:32:51;12.55;;;5.05;;
34657;SDS011;20865;43.312;27.152;2023-06-26T09:35:19;7.95;;;3.30;;
34657;SDS011;20865;43.312;27.152;2023-06-26T09:37:47;7.42;;;3.60;;
34657;SDS011;20865;43.312;27.152;2023-06-26T09:40:15;14.00;;;3.60;;
34657;SDS011;20865;43.312;27.152;2023-06-26T09:42:43;6.90;;;3.27;;
34657;SDS011;20865;43.312;27.152;2023-06-26T09:45:17;4.40;;;3.50;;
34657;SDS011;20865;43.312;27.152;2023-06-26T09:47:43;14.05;;;3.40;;
34657;SDS011;20865;43.312;27.152;2023-06-26T09:50:20;8.58;;;3.40;;
34657;SDS011;20865;43.312;27.152;2023-06-26T09:52:50;6.45;;;3.67;;
34657;SDS011;20865;43.312;27.152;2023-06-26T09:55:18;9.50;;;4.35;;
34657;SDS011;20865;43.312;27.152;2023-06-26T09:57:49;5.92;;;3.40;;
34657;SDS011;20865;43.312;27.152;2023-06-26T10:00:18;10.35;;;3.80;;
34657;SDS011;20865;43.312;27.152;2023-06-26T10:02:46;8.43;;;3.62;;
34657;SDS011;20865;43.312;27.152;2023-06-26T10:05:14;8.25;;;3.90;;
34657;SDS011;20865;43.312;27.152;2023-06-26T10:07:42;9.78;;;4.10;;
34657;SDS011;20865;43.312;27.152;2023-06-26T10:10:10;12.25;;;3.72;;
34657;SDS011;20865;43.312;27.152;2023-06-26T10:12:38;7.53;;;3.50;;
34657;SDS011;20865;43.312;27.152;2023-06-26T10:15:06;12.13;;;3.83;;
34657;SDS011;20865;43.312;27.152;2023-06-26T10:17:36;6.85;;;3.60;;
34657;SDS011;20865;43.312;27.152;2023-06-26T10:20:05;5.35;;;3.58;;
34657;SDS011;20865;43.312;27.152;2023-06-26T10:22:44;12.50;;;4.10;;
34657;SDS011;20865;43.312;27.152;2023-06-26T10:25:08;9.88;;;3.87;;
34657;SDS011;20865;43.312;27.152;2023-06-26T10:27:50;8.00;;;3.72;;
34657;SDS011;20865;43.312;27.152;2023-06-26T10:30:09;10.58;;;3.72;;
34657;SDS011;20865;43.312;27.152;2023-06-26T10:32:40;5.87;;;3.75;;
34657;SDS011;20865;43.312;27.152;2023-06-26T10:35:09;7.58;;;3.87;;
34657;SDS011;20865;43.312;27.152;2023-06-26T10:37:45;8.55;;;4.05;;
34657;SDS011;20865;43.312;27.152;2023-06-26T10:40:28;12.53;;;5.55;;
34657;SDS011;20865;43.312;27.152;2023-06-26T10:43:05;9.48;;;4.28;;
34657;SDS011;20865;43.312;27.152;2023-06-26T10:45:34;9.23;;;3.92;;
34657;SDS011;20865;43.312;27.152;2023-06-26T10:48:02;48.68;;;6.60;;
34657;SDS011;20865;43.312;27.152;2023-06-26T10:50:31;6.17;;;3.90;;
34657;SDS011;20865;43.312;27.152;2023-06-26T10:56:00;6.72;;;4.00;;
34657;SDS011;20865;43.312;27.152;2023-06-26T10:58:40;6.95;;;3.90;;
34657;SDS011;20865;43.312;27.152;2023-06-26T11:03:48;6.45;;;4.20;;
34657;SDS011;20865;43.312;27.152;2023-06-26T11:06:27;11.55;;;4.40;;
34657;SDS011;20865;43.312;27.152;2023-06-26T11:14:20;4.72;;;3.70;;
34657;SDS011;20865;43.312;27.152;2023-06-26T11:16:50;5.00;;;3.50;;
34657;SDS011;20865;43.312;27.152;2023-06-26T11:19:19;7.85;;;3.62;;
34657;SDS011;20865;43.312;27.152;2023-06-26T11:21:47;3.90;;;3.10;;
34657;SDS011;20865;43.312;27.152;2023-06-26T11:24:14;5.78;;;3.55;;
34657;SDS011;20865;43.312;27.152;2023-06-26T11:26:44;5.53;;;3.37;;
34657;SDS011;20865;43.312;27.152;2023-06-26T11:29:13;7.70;;;3.10;;
34657;SDS011;20865;43.312;27.152;2023-06-26T11:31:41;7.53;;;2.98;;
34657;SDS011;20865;43.312;27.152;2023-06-26T11:34:09;3.80;;;2.42;;
34657;SDS011;20865;43.312;27.152;2023-06-26T11:36:39;5.17;;;3.00;;
34657;SDS011;20865;43.312;27.152;2023-06-26T11:39:10;7.85;;;2.92;;
34657;SDS011;20865;43.312;27.152;2023-06-26T11:41:38;10.28;;;3.50;;
34657;SDS011;20865;43.312;27.152;2023-06-26T11:44:08;11.35;;;2.50;;
34657;SDS011;20865;43.312;27.152;2023-06-26T11:46:36;9.93;;;3.00;;
34657;SDS011;20865;43.312;27.152;2023-06-26T11:49:10;9.90;;;2.70;;
34657;SDS011;20865;43.312;27.152;2023-06-26T11:51:34;5.25;;;2.80;;
34657;SDS011;20865;43.312;27.152;2023-06-26T11:54:03;8.28;;;2.70;;
34657;SDS011;20865;43.312;27.152;2023-06-26T11:56:31;4.50;;;2.77;;
34657;SDS011;20865;43.312;27.152;2023-06-26T11:59:06;5.97;;;2.83;;
34657;SDS011;20865;43.312;27.152;2023-06-26T12:01:36;7.37;;;3.05;;
34657;SDS011;20865;43.312;27.152;2023-06-26T12:04:11;6.05;;;2.92;;
34657;SDS011;20865;43.312;27.152;2023-06-26T12:06:42;10.48;;;3.02;;
34657;SDS011;20865;43.312;27.152;2023-06-26T12:09:11;3.80;;;2.55;;
34657;SDS011;20865;43.312;27.152;2023-06-26T12:11:42;5.67;;;2.95;;
34657;SDS011;20865;43.312;27.152;2023-06-26T12:14:13;6.92;;;2.92;;
34657;SDS011;20865;43.312;27.152;2023-06-26T12:16:41;4.37;;;3.10;;
34657;SDS011;20865;43.312;27.152;2023-06-26T12:19:10;14.00;;;3.30;;
34657;SDS011;20865;43.312;27.152;2023-06-26T12:24:13;4.08;;;2.58;;
34657;SDS011;20865;43.312;27.152;2023-06-26T12:26:43;9.53;;;3.40;;
34657;SDS011;20865;43.312;27.152;2023-06-26T12:29:12;6.17;;;3.22;;
34657;SDS011;20865;43.312;27.152;2023-06-26T12:31:45;11.50;;;2.87;;
34657;SDS011;20865;43.312;27.152;2023-06-26T12:34:15;4.35;;;2.75;;
34657;SDS011;20865;43.312;27.152;2023-06-26T12:36:46;7.03;;;2.98;;
34657;SDS011;20865;43.312;27.152;2023-06-26T12:39:17;4.62;;;2.77;;
34657;SDS011;20865;43.312;27.152;2023-06-26T12:41:53;4.65;;;3.10;;
34657;SDS011;20865;43.312;27.152;2023-06-26T12:44:24;3.45;;;2.30;;
34657;SDS011;20865;43.312;27.152;2023-06-26T12:47:00;4.67;;;2.37;;
34657;SDS011;20865;43.312;27.152;2023-06-26T12:49:29;8.38;;;3.17;;
34657;SDS011;20865;43.312;27.152;2023-06-26T12:51:58;3.85;;;2.70;;
34657;SDS011;20865;43.312;27.152;2023-06-26T12:54:28;3.40;;;2.58;;
34657;SDS011;20865;43.312;27.152;2023-06-26T12:56:55;7.60;;;2.67;;
34657;SDS011;20865;43.312;27.152;2023-06-26T12:59:23;6.85;;;2.98;;
34657;SDS011;20865;43.312;27.152;2023-06-26T13:01:51;11.93;;;2.27;;
34657;SDS011;20865;43.312;27.152;2023-06-26T13:04:18;4.22;;;2.60;;
34657;SDS011;20865;43.312;27.152;2023-06-26T13:06:46;4.85;;;2.65;;
34657;SDS011;20865;43.312;27.152;2023-06-26T13:09:13;4.47;;;2.90;;
34657;SDS011;20865;43.312;27.152;2023-06-26T13:11:41;5.62;;;2.75;;
34657;SDS011;20865;43.312;27.152;2023-06-26T13:14:09;4.10;;;2.60;;
34657;SDS011;20865;43.312;27.152;2023-06-26T13:16:40;3.17;;;2.60;;
34657;SDS011;20865;43.312;27.152;2023-06-26T13:19:07;5.58;;;3.50;;
34657;SDS011;20865;43.312;27.152;2023-06-26T13:21:35;7.95;;;3.72;;
34657;SDS011;20865;43.312;27.152;2023-06-26T13:24:04;8.15;;;4.10;;
34657;SDS011;20865;43.312;27.152;2023-06-26T13:26:32;5.25;;;3.20;;
34657;SDS011;20865;43.312;27.152;2023-06-26T13:29:00;4.40;;;2.90;;
34657;SDS011;20865;43.312;27.152;2023-06-26T13:31:29;7.40;;;2.87;;
34657;SDS011;20865;43.312;27.152;2023-06-26T13:34:02;92.75;;;9.25;;
34657;SDS011;20865;43.312;27.152;2023-06-26T13:36:25;12.80;;;4.62;;
34657;SDS011;20865;43.312;27.152;2023-06-26T13:38:53;8.15;;;3.92;;
34657;SDS011;20865;43.312;27.152;2023-06-26T13:41:22;6.78;;;4.22;;
34657;SDS011;20865;43.312;27.152;2023-06-26T13:43:50;11.68;;;3.58;;
34657;SDS011;20865;43.312;27.152;2023-06-26T13:46:17;36.55;;;6.03;;
34657;SDS011;20865;43.312;27.152;2023-06-26T13:48:45;6.75;;;2.65;;
34657;SDS011;20865;43.312;27.152;2023-06-26T13:51:13;5.78;;;3.02;;
34657;SDS011;20865;43.312;27.152;2023-06-26T13:53:41;4.92;;;2.83;;
34657;SDS011;20865;43.312;27.152;2023-06-26T13:56:08;17.10;;;3.35;;
34657;SDS011;20865;43.312;27.152;2023-06-26T13:58:36;6.58;;;2.80;;
34657;SDS011;20865;43.312;27.152;2023-06-26T14:01:05;10.35;;;4.35;;
34657;SDS011;20865;43.312;27.152;2023-06-26T14:03:32;6.92;;;2.77;;
34657;SDS011;20865;43.312;27.152;2023-06-26T14:06:00;9.95;;;2.62;;
34657;SDS011;20865;43.312;27.152;2023-06-26T14:08:27;4.50;;;2.95;;
34657;SDS011;20865;43.312;27.152;2023-06-26T14:10:55;4.83;;;2.90;;
34657;SDS011;20865;43.312;27.152;2023-06-26T14:13:23;4.35;;;2.83;;
34657;SDS011;20865;43.312;27.152;2023-06-26T14:15:50;4.37;;;2.70;;
34657;SDS011;20865;43.312;27.152;2023-06-26T14:18:18;6.50;;;2.60;;
34657;SDS011;20865;43.312;27.152;2023-06-26T14:20:46;3.95;;;2.75;;
34657;SDS011;20865;43.312;27.152;2023-06-26T14:23:14;5.30;;;2.45;;
34657;SDS011;20865;43.312;27.152;2023-06-26T14:25:41;5.97;;;2.60;;
34657;SDS011;20865;43.312;27.152;2023-06-26T14:28:09;3.87;;;2.50;;
34657;SDS011;20865;43.312;27.152;2023-06-26T14:30:36;9.33;;;2.98;;
34657;SDS011;20865;43.312;27.152;2023-06-26T14:33:04;4.50;;;2.83;;
34657;SDS011;20865;43.312;27.152;2023-06-26T14:35:32;5.20;;;2.85;;
34657;SDS011;20865;43.312;27.152;2023-06-26T14:38:01;6.50;;;2.87;;
34657;SDS011;20865;43.312;27.152;2023-06-26T14:40:28;3.90;;;2.77;;
34657;SDS011;20865;43.312;27.152;2023-06-26T14:42:56;3.83;;;2.42;;
34657;SDS011;20865;43.312;27.152;2023-06-26T14:45:24;11.73;;;3.25;;
34657;SDS011;20865;43.312;27.152;2023-06-26T14:47:51;5.42;;;2.52;;
34657;SDS011;20865;43.312;27.152;2023-06-26T14:50:19;7.45;;;3.10;;
34657;SDS011;20865;43.312;27.152;2023-06-26T14:52:47;7.30;;;2.92;;